createdAt,value
2024-02-11T00:01:55.867Z,21.13
2024-02-11T00:04:43.416Z,18.20
2024-02-11T00:07:29.121Z,17.98
2024-02-11T00:10:16.101Z,18.25
2024-02-11T00:13:03.039Z,18.30
2024-02-11T00:15:48.683Z,18.38
2024-02-11T00:18:34.456Z,16.13
2024-02-11T00:21:20.068Z,16.83
2024-02-11T00:24:06.072Z,17.75
2024-02-11T00:26:53.173Z,18.30
2024-02-11T00:29:39.267Z,18.20
2024-02-11T00:32:25.348Z,20.30
2024-02-11T00:35:13.801Z,19.75
2024-02-11T00:38:01.435Z,17.42
2024-02-11T00:40:47.515Z,17.73
2024-02-11T00:43:38.887Z,16.98
2024-02-11T00:46:25.053Z,16.80
2024-02-11T00:49:11.056Z,16.77
2024-02-11T00:51:56.828Z,16.60
2024-02-11T00:54:42.469Z,16.95
2024-02-11T00:57:28.019Z,17.23
2024-02-11T01:00:16.659Z,19.17
2024-02-11T01:03:02.291Z,18.25
2024-02-11T01:05:48.508Z,17.70
2024-02-11T01:08:34.523Z,17.25
2024-02-11T01:11:21.122Z,18.38
2024-02-11T01:14:08.987Z,17.70
2024-02-11T01:16:56.595Z,16.73
2024-02-11T01:19:44.759Z,17.15
2024-02-11T01:22:31.049Z,17.58
2024-02-11T01:25:21.051Z,16.92
2024-02-11T01:28:06.921Z,16.75
2024-02-11T01:30:52.705Z,17.08
2024-02-11T01:33:40.105Z,16.63
2024-02-11T01:36:26.301Z,16.30
2024-02-11T01:39:12.109Z,16.67
2024-02-11T01:41:57.596Z,17.17
2024-02-11T01:44:43.054Z,17.05
2024-02-11T01:47:30.543Z,17.85
2024-02-11T01:50:21.997Z,18.65
2024-02-11T01:53:10.373Z,18.55
2024-02-11T01:55:56.931Z,17.33
2024-02-11T01:58:44.750Z,17.75
2024-02-11T02:01:32.677Z,18.10
2024-02-11T02:04:18.579Z,17.02
2024-02-11T02:07:06.289Z,18.02
2024-02-11T02:09:54.446Z,17.10
2024-02-11T02:12:41.963Z,20.77
2024-02-11T02:15:27.760Z,17.55
2024-02-11T02:18:14.011Z,17.50
2024-02-11T02:20:59.909Z,19.65
2024-02-11T02:23:48.996Z,17.33
2024-02-11T02:26:34.395Z,16.67
2024-02-11T02:29:20.148Z,16.48
2024-02-11T02:32:06.863Z,16.95
2024-02-11T02:34:52.554Z,15.98
2024-02-11T02:37:38.756Z,17.33
2024-02-11T02:40:28.513Z,16.63
2024-02-11T02:43:14.934Z,15.88
2024-02-11T02:46:00.245Z,16.30
2024-02-11T02:48:45.901Z,16.25
2024-02-11T02:51:32.239Z,15.02
2024-02-11T02:54:17.809Z,15.75
2024-02-11T02:57:05.391Z,15.15
2024-02-11T02:59:50.775Z,15.68
2024-02-11T03:02:36.609Z,16.63
2024-02-11T03:05:24.207Z,16.40
2024-02-11T03:08:10.886Z,15.68
2024-02-11T03:10:56.700Z,16.45
2024-02-11T03:13:50.104Z,15.93
2024-02-11T03:16:36.292Z,16.60
2024-02-11T03:19:22.457Z,16.90
2024-02-11T03:22:07.911Z,16.35
2024-02-11T03:24:53.468Z,16.83
2024-02-11T03:27:48.133Z,16.75
2024-02-11T03:30:36.684Z,17.33
2024-02-11T03:33:22.552Z,16.98
2024-02-11T03:36:08.400Z,17.60
2024-02-11T03:38:53.921Z,17.83
2024-02-11T03:41:39.552Z,18.42
2024-02-11T03:44:26.037Z,19.15
2024-02-11T03:47:13.294Z,20.80
2024-02-11T03:49:59.185Z,24.30
2024-02-11T03:52:45.278Z,26.33
2024-02-11T03:55:31.101Z,31.05
2024-02-11T03:58:16.818Z,32.00
2024-02-11T04:01:02.692Z,33.28
2024-02-11T04:03:50.120Z,32.97
2024-02-11T04:06:36.269Z,33.08
2024-02-11T04:09:29.655Z,31.73
2024-02-11T04:12:17.052Z,29.48
2024-02-11T04:15:03.873Z,29.67
2024-02-11T04:17:50.782Z,28.88
2024-02-11T04:20:39.637Z,26.58
2024-02-11T04:23:26.149Z,25.85
2024-02-11T04:26:11.951Z,24.67
2024-02-11T04:29:00.853Z,24.50
2024-02-11T04:31:47.992Z,24.67
2024-02-11T04:34:33.931Z,24.48
2024-02-11T04:37:25.218Z,24.10
2024-02-11T04:40:11.896Z,24.67
2024-02-11T04:43:00.063Z,28.20
2024-02-11T04:45:45.492Z,31.13
2024-02-11T04:48:33.066Z,32.10
2024-02-11T04:51:19.087Z,30.77
2024-02-11T04:54:06.866Z,24.10
2024-02-11T04:56:54.739Z,24.48
2024-02-11T04:59:40.523Z,22.85
2024-02-11T05:02:26.972Z,21.88
2024-02-11T05:05:13.188Z,20.08
2024-02-11T05:08:01.957Z,21.98
2024-02-11T05:10:52.433Z,20.45
2024-02-11T05:13:39.056Z,20.60
2024-02-11T05:16:29.157Z,20.20
2024-02-11T05:19:16.144Z,15.07
2024-02-11T05:22:03.530Z,20.05
2024-02-11T05:24:49.422Z,20.90
2024-02-11T05:27:36.342Z,20.08
2024-02-11T05:30:23.452Z,21.23
2024-02-11T05:33:09.694Z,22.17
2024-02-11T05:35:55.518Z,21.55
2024-02-11T05:38:41.958Z,20.83
2024-02-11T05:41:27.958Z,21.50
2024-02-11T05:44:15.142Z,21.23
2024-02-11T05:47:01.356Z,21.77
2024-02-11T05:49:47.373Z,21.88
2024-02-11T05:52:36.415Z,22.73
2024-02-11T05:55:23.556Z,21.67
2024-02-11T05:58:09.659Z,22.00
2024-02-11T06:00:56.706Z,20.88
2024-02-11T06:03:43.782Z,22.02
2024-02-11T06:06:29.592Z,22.88
2024-02-11T06:09:15.248Z,21.70
2024-02-11T06:12:01.069Z,21.27
2024-02-11T06:14:46.547Z,21.33
2024-02-11T06:17:36.825Z,22.33
2024-02-11T06:20:22.935Z,21.60
2024-02-11T06:23:09.174Z,21.23
2024-02-11T06:26:03.568Z,19.17
2024-02-11T06:28:49.466Z,18.98
2024-02-11T06:31:35.623Z,17.30
2024-02-11T06:34:26.745Z,8.82
2024-02-11T06:37:12.909Z,6.85
2024-02-11T06:39:59.741Z,6.95
2024-02-11T06:42:49.467Z,7.47
2024-02-11T06:45:35.266Z,8.20
2024-02-11T06:48:21.598Z,7.97
2024-02-11T06:51:08.623Z,9.15
2024-02-11T06:53:54.124Z,9.20
2024-02-11T06:56:40.388Z,10.35
2024-02-11T06:59:26.990Z,10.38
2024-02-11T07:02:12.508Z,11.20
2024-02-11T07:04:59.218Z,11.13
2024-02-11T07:07:47.044Z,12.95
2024-02-11T07:10:32.712Z,15.68
2024-02-11T07:13:18.520Z,16.60
2024-02-11T07:16:09.220Z,16.67
2024-02-11T07:18:55.854Z,17.45
2024-02-11T07:21:42.433Z,16.73
2024-02-11T07:24:29.967Z,18.13
2024-02-11T07:27:16.158Z,17.75
2024-02-11T07:30:03.035Z,18.45
2024-02-11T07:32:48.937Z,18.27
2024-02-11T07:35:35.090Z,17.50
2024-02-11T07:38:23.199Z,17.73
2024-02-11T07:41:11.344Z,16.80
2024-02-11T07:43:57.832Z,17.58
2024-02-11T07:46:43.807Z,17.77
2024-02-11T07:49:29.888Z,15.50
2024-02-11T07:52:18.559Z,15.25
2024-02-11T07:55:05.276Z,14.43
2024-02-11T07:57:53.538Z,13.80
2024-02-11T08:00:39.923Z,14.95
2024-02-11T08:03:26.195Z,14.25
2024-02-11T08:06:12.493Z,13.52
2024-02-11T08:08:58.591Z,12.77
2024-02-11T08:11:45.728Z,14.15
2024-02-11T08:14:33.100Z,13.82
2024-02-11T08:17:19.734Z,15.10
2024-02-11T08:20:07.237Z,15.00
2024-02-11T08:22:53.543Z,14.90
2024-02-11T08:25:39.305Z,15.40
2024-02-11T08:28:25.056Z,14.57
2024-02-11T08:31:13.549Z,15.40
2024-02-11T08:33:59.650Z,14.95
2024-02-11T08:36:45.305Z,14.43
2024-02-11T08:39:30.891Z,14.93
2024-02-11T08:42:16.330Z,14.68
2024-02-11T08:45:02.215Z,14.88
2024-02-11T08:47:49.536Z,16.38
2024-02-11T08:50:35.426Z,16.17
2024-02-11T08:53:21.060Z,17.00
2024-02-11T08:56:11.296Z,16.80
2024-02-11T08:58:58.001Z,16.67
2024-02-11T09:01:51.532Z,16.95
2024-02-11T09:04:39.432Z,15.55
2024-02-11T09:07:25.831Z,16.95
2024-02-11T09:10:15.419Z,17.13
2024-02-11T09:13:01.424Z,17.58
2024-02-11T09:15:47.063Z,18.02
2024-02-11T09:18:33.069Z,18.90
2024-02-11T09:21:20.513Z,19.30
2024-02-11T09:24:06.718Z,18.88
2024-02-11T09:26:53.042Z,20.17
2024-02-11T09:29:38.879Z,19.27
2024-02-11T09:32:26.229Z,19.42
2024-02-11T09:35:12.932Z,18.88
2024-02-11T09:38:00.330Z,19.27
2024-02-11T09:40:46.620Z,18.70
2024-02-11T09:43:32.868Z,18.60
2024-02-11T09:46:19.530Z,19.65
2024-02-11T09:49:11.180Z,17.55
2024-02-11T09:51:59.560Z,19.48
2024-02-11T09:54:49.190Z,18.23
2024-02-11T09:57:34.950Z,18.42
2024-02-11T10:00:21.559Z,18.42
2024-02-11T10:03:08.952Z,17.52
2024-02-11T10:05:57.218Z,17.67
2024-02-11T10:08:42.980Z,16.90
2024-02-11T10:11:31.509Z,16.83
2024-02-11T10:14:18.620Z,16.55
2024-02-11T10:17:07.415Z,15.50
2024-02-11T10:19:53.692Z,16.25
2024-02-11T10:22:39.405Z,16.83
2024-02-11T10:25:27.893Z,15.85
2024-02-11T10:28:15.354Z,15.77
2024-02-11T10:31:02.690Z,16.92
2024-02-11T10:33:49.022Z,15.32
2024-02-11T10:36:36.585Z,14.85
2024-02-11T10:39:23.959Z,14.48
2024-02-11T10:42:12.184Z,14.65
2024-02-11T10:45:00.120Z,15.20
2024-02-11T10:47:45.863Z,14.88
2024-02-11T10:50:33.311Z,13.88
2024-02-11T10:53:22.804Z,13.35
2024-02-11T10:56:11.322Z,12.88
2024-02-11T10:59:06.171Z,12.90
2024-02-11T11:01:56.999Z,12.82
2024-02-11T11:04:45.680Z,12.77
2024-02-11T11:07:39.095Z,11.80
2024-02-11T11:10:30.420Z,10.95
2024-02-11T11:13:26.151Z,10.95
2024-02-11T11:16:12.893Z,11.48
2024-02-11T11:19:04.303Z,12.60
2024-02-11T11:21:56.052Z,12.10
2024-02-11T11:24:41.960Z,12.18
2024-02-11T11:27:28.081Z,13.13
2024-02-11T11:30:15.252Z,12.18
2024-02-11T11:33:04.533Z,12.43
2024-02-11T11:35:59.079Z,13.05
2024-02-11T11:38:44.901Z,12.48
2024-02-11T11:41:30.668Z,13.70
2024-02-11T11:44:24.089Z,12.80
2024-02-11T11:47:10.361Z,13.25
2024-02-11T11:49:56.552Z,12.68
2024-02-11T11:52:44.177Z,12.30
2024-02-11T11:55:30.209Z,12.25
2024-02-11T11:58:23.056Z,12.52
2024-02-11T12:01:10.443Z,12.23
2024-02-11T12:03:56.582Z,12.35
2024-02-11T12:06:42.287Z,13.27
2024-02-11T12:09:29.969Z,11.30
2024-02-11T12:12:16.052Z,12.95
2024-02-11T12:15:04.757Z,12.18
2024-02-11T12:17:51.910Z,12.35
2024-02-11T12:20:40.392Z,12.43
2024-02-11T12:23:26.286Z,12.88
2024-02-11T12:26:21.089Z,13.02
2024-02-11T12:29:07.666Z,13.30
2024-02-11T12:31:53.833Z,12.60
2024-02-11T12:34:40.007Z,13.35
2024-02-11T12:37:29.687Z,14.45
2024-02-11T12:40:19.662Z,12.73
2024-02-11T12:43:10.366Z,14.30
2024-02-11T12:45:57.178Z,14.43
2024-02-11T12:48:44.340Z,14.82
2024-02-11T12:51:31.082Z,14.55
2024-02-11T12:54:17.515Z,14.85
2024-02-11T12:57:06.244Z,13.63
2024-02-11T12:59:53.265Z,13.55
2024-02-11T13:02:38.739Z,13.30
2024-02-11T13:05:26.967Z,12.48
2024-02-11T13:08:14.954Z,13.00
2024-02-11T13:11:01.689Z,13.20
2024-02-11T13:13:49.838Z,13.32
2024-02-11T13:16:37.083Z,11.93
2024-02-11T13:19:24.014Z,12.07
2024-02-11T13:22:13.982Z,11.43
2024-02-11T13:25:00.277Z,11.30
2024-02-11T13:27:46.250Z,10.20
2024-02-11T13:30:32.543Z,11.20
2024-02-11T13:33:20.075Z,11.45
2024-02-11T13:36:11.558Z,10.43
2024-02-11T13:38:57.917Z,10.00
2024-02-11T13:41:43.750Z,9.98
2024-02-11T13:44:30.698Z,9.63
2024-02-11T13:47:17.166Z,9.75
2024-02-11T13:50:17.264Z,8.85
2024-02-11T13:53:04.112Z,8.90
2024-02-11T13:55:50.322Z,9.60
2024-02-11T13:58:43.147Z,9.55
2024-02-11T14:01:32.099Z,8.52
2024-02-11T14:04:18.286Z,9.77
2024-02-11T14:07:07.064Z,9.60
2024-02-11T14:09:54.374Z,8.73
2024-02-11T14:12:42.750Z,8.80
2024-02-11T14:15:30.831Z,8.30
2024-02-11T14:18:18.207Z,8.05
2024-02-11T14:21:04.499Z,8.27
2024-02-11T14:23:52.488Z,8.63
2024-02-11T14:26:38.227Z,8.27
2024-02-11T14:29:24.179Z,7.72
2024-02-11T14:32:10.051Z,7.40
2024-02-11T14:34:58.332Z,8.60
2024-02-11T14:37:44.576Z,8.63
2024-02-11T14:40:32.339Z,8.38
2024-02-11T14:43:19.020Z,8.52
2024-02-11T14:46:07.034Z,9.05
2024-02-11T14:48:53.080Z,8.77
2024-02-11T14:51:40.962Z,9.13
2024-02-11T14:54:29.846Z,8.88
2024-02-11T14:57:17.053Z,8.50
2024-02-11T15:00:03.841Z,8.68
2024-02-11T15:02:53.065Z,8.15
2024-02-11T15:05:39.472Z,8.88
2024-02-11T15:08:25.180Z,8.80
2024-02-11T15:11:12.910Z,8.82
2024-02-11T15:14:01.710Z,9.15
2024-02-11T15:16:47.501Z,8.77
2024-02-11T15:19:36.349Z,9.25
2024-02-11T15:22:22.691Z,10.10
2024-02-11T15:25:09.420Z,9.45
2024-02-11T15:27:55.358Z,9.95
2024-02-11T15:30:42.958Z,10.25
2024-02-11T15:33:28.712Z,9.45
2024-02-11T15:36:15.333Z,9.02
2024-02-11T15:39:02.921Z,9.85
2024-02-11T15:41:48.747Z,8.15
2024-02-11T15:44:34.772Z,7.90
2024-02-11T15:47:22.453Z,8.35
2024-02-11T15:50:09.273Z,9.43
2024-02-11T15:52:55.504Z,8.45
2024-02-11T15:55:41.463Z,8.38
2024-02-11T15:58:27.096Z,8.43
2024-02-11T16:01:12.635Z,8.77
2024-02-11T16:04:01.871Z,8.15
2024-02-11T16:06:47.787Z,7.07
2024-02-11T16:09:33.756Z,6.72
2024-02-11T16:12:19.528Z,5.88
2024-02-11T16:15:06.978Z,6.10
2024-02-11T16:17:53.529Z,5.38
2024-02-11T16:20:42.195Z,4.88
2024-02-11T16:23:29.473Z,5.18
2024-02-11T16:26:17.311Z,6.90
2024-02-11T16:29:04.644Z,6.65
2024-02-11T16:31:50.586Z,5.90
2024-02-11T16:34:36.568Z,6.05
2024-02-11T16:37:25.619Z,5.45
2024-02-11T16:40:15.190Z,5.72
2024-02-11T16:43:00.753Z,5.10
2024-02-11T16:45:48.423Z,5.07
2024-02-11T16:48:37.141Z,7.30
2024-02-11T16:51:23.781Z,6.40
2024-02-11T16:54:10.867Z,6.30
2024-02-11T16:56:59.289Z,6.00
2024-02-11T16:59:45.349Z,6.55
2024-02-11T17:02:31.976Z,6.65
2024-02-11T17:05:18.415Z,7.50
2024-02-11T17:08:04.663Z,7.35
2024-02-11T17:10:54.679Z,8.18
2024-02-11T17:13:40.540Z,7.50
2024-02-11T17:16:26.809Z,7.65
2024-02-11T17:19:16.921Z,7.80
2024-02-11T17:22:04.314Z,8.15
2024-02-11T17:24:49.861Z,9.00
2024-02-11T17:27:39.115Z,9.13
2024-02-11T17:30:26.051Z,9.02
2024-02-11T17:33:12.564Z,9.43
2024-02-11T17:35:59.628Z,10.07
2024-02-11T17:38:46.042Z,11.68
2024-02-11T17:41:33.284Z,10.73
2024-02-11T17:44:22.290Z,9.68
2024-02-11T17:47:08.879Z,10.07
2024-02-11T17:49:54.968Z,10.05
2024-02-11T17:52:41.684Z,11.02
2024-02-11T17:55:29.266Z,11.70
2024-02-11T17:58:15.099Z,10.35
2024-02-11T18:01:02.263Z,9.25
2024-02-11T18:03:48.785Z,10.02
2024-02-11T18:06:36.542Z,9.80
2024-02-11T18:09:22.383Z,9.75
2024-02-11T18:12:08.835Z,10.15
2024-02-11T18:14:54.644Z,9.98
2024-02-11T18:17:42.680Z,10.80
2024-02-11T18:20:28.814Z,9.80
2024-02-11T18:23:16.711Z,11.68
2024-02-11T18:26:08.891Z,12.93
2024-02-11T18:28:57.698Z,13.75
2024-02-11T18:31:44.116Z,15.75
2024-02-11T18:34:31.290Z,13.95
2024-02-11T18:37:20.686Z,12.15
2024-02-11T18:40:10.557Z,11.30
2024-02-11T18:42:56.840Z,12.50
2024-02-11T18:45:44.299Z,11.57
2024-02-11T18:48:30.461Z,12.43
2024-02-11T18:51:17.800Z,11.25
2024-02-11T18:54:03.518Z,12.18
2024-02-11T18:56:50.554Z,12.20
2024-02-11T18:59:36.245Z,11.77
2024-02-11T19:02:23.582Z,13.27
2024-02-11T19:05:11.024Z,12.48
2024-02-11T19:08:02.125Z,12.23
2024-02-11T19:10:48.086Z,13.80
2024-02-11T19:13:34.161Z,13.90
2024-02-11T19:16:20.712Z,12.55
2024-02-11T19:19:06.553Z,11.68
2024-02-11T19:21:52.713Z,12.77
2024-02-11T19:24:41.925Z,13.00
2024-02-11T19:27:27.744Z,13.82
2024-02-11T19:30:15.338Z,13.90
2024-02-11T19:33:02.451Z,15.40
2024-02-11T19:35:48.341Z,13.35
2024-02-11T19:38:35.006Z,12.57
2024-02-11T19:41:32.655Z,11.70
2024-02-11T19:44:18.329Z,12.73
2024-02-11T19:47:07.188Z,12.85
2024-02-11T19:49:55.411Z,12.60
2024-02-11T19:52:41.410Z,16.75
2024-02-11T19:55:27.437Z,17.33
2024-02-11T19:58:16.395Z,15.50
2024-02-11T20:01:05.295Z,15.27
2024-02-11T20:03:51.569Z,11.32
2024-02-11T20:06:37.792Z,11.10
2024-02-11T20:09:23.772Z,10.75
2024-02-11T20:12:10.150Z,10.70
2024-02-11T20:14:57.406Z,10.45
2024-02-11T20:17:44.211Z,10.15
2024-02-11T20:20:30.969Z,10.57
2024-02-11T20:23:17.865Z,10.07
2024-02-11T20:26:05.539Z,10.20
2024-02-11T20:28:51.363Z,11.15
2024-02-11T20:31:38.783Z,11.45
2024-02-11T20:34:24.394Z,11.27
2024-02-11T20:37:18.113Z,9.77
2024-02-11T20:40:06.265Z,9.90
2024-02-11T20:42:52.306Z,6.85
2024-02-11T20:45:38.972Z,6.38
2024-02-11T20:48:28.844Z,6.30
2024-02-11T20:51:17.472Z,7.43
2024-02-11T20:54:03.373Z,7.65
2024-02-11T20:56:49.602Z,7.93
2024-02-11T20:59:36.568Z,9.07
2024-02-11T21:02:22.403Z,8.95
2024-02-11T21:05:10.526Z,8.73
2024-02-11T21:07:56.420Z,9.32
2024-02-11T21:10:44.465Z,10.45
2024-02-11T21:13:30.685Z,10.80
2024-02-11T21:16:16.616Z,12.00
2024-02-11T21:19:03.663Z,12.20
2024-02-11T21:21:50.809Z,12.30
2024-02-11T21:24:36.470Z,12.25
2024-02-11T21:27:22.556Z,11.15
2024-02-11T21:30:09.107Z,10.35
2024-02-11T21:32:55.148Z,10.73
2024-02-11T21:35:41.073Z,9.43
2024-02-11T21:38:28.612Z,8.45
2024-02-11T21:41:19.541Z,8.27
2024-02-11T21:46:55.027Z,8.50
2024-02-11T21:49:41.060Z,9.88
2024-02-11T21:52:27.693Z,8.35
2024-02-11T21:55:19.411Z,7.20
2024-02-11T21:58:05.577Z,8.10
2024-02-11T22:00:51.548Z,8.40
2024-02-11T22:03:37.501Z,9.55
2024-02-11T22:06:24.961Z,12.00
2024-02-11T22:09:14.725Z,13.52
2024-02-11T22:12:02.432Z,11.73
2024-02-11T22:14:48.368Z,10.27
2024-02-11T22:17:35.998Z,10.95
2024-02-11T22:20:22.662Z,11.52
2024-02-11T22:23:08.769Z,11.48
2024-02-11T22:25:54.785Z,13.43
2024-02-11T22:28:43.560Z,13.20
2024-02-11T22:31:29.816Z,12.73
2024-02-11T22:34:15.728Z,13.90
2024-02-11T22:37:02.032Z,13.68
2024-02-11T22:39:49.058Z,13.85
2024-02-11T22:42:35.492Z,15.43
2024-02-11T22:45:24.753Z,15.27
2024-02-11T22:48:10.870Z,15.52
2024-02-11T22:50:56.732Z,16.08
2024-02-11T22:53:42.185Z,16.65
2024-02-11T22:56:28.124Z,17.67
2024-02-11T22:59:13.720Z,16.23
2024-02-11T23:02:01.852Z,17.27
2024-02-11T23:04:47.877Z,18.48
2024-02-11T23:07:34.700Z,19.90
2024-02-11T23:10:24.256Z,19.58
2024-02-11T23:13:10.378Z,19.42
2024-02-11T23:15:56.261Z,18.67
2024-02-11T23:18:43.902Z,18.83
2024-02-11T23:21:29.881Z,18.42
2024-02-11T23:24:15.263Z,19.73
2024-02-11T23:27:07.307Z,18.92
2024-02-11T23:29:54.075Z,19.13
2024-02-11T23:32:40.523Z,18.85
2024-02-11T23:35:28.389Z,18.75
2024-02-11T23:38:14.650Z,19.20
2024-02-11T23:41:00.926Z,18.20
2024-02-11T23:43:46.769Z,18.83
2024-02-11T23:46:33.311Z,20.30
2024-02-11T23:49:21.957Z,19.17
2024-02-11T23:52:09.835Z,20.05
2024-02-11T23:54:56.375Z,19.35
2024-02-11T23:57:42.370Z,20.90
